Time;durP1;ratioP1;P1;durP2;ratioP2;P2;SDS_P1;SDS_P2;PMS_P1;PMS_P2;Temp;Humidity;BMP_temperature;BMP_pressure;BME280_temperature;BME280_humidity;BME280_pressure;Samples;Min_cycle;Max_cycle;Signal;HPM_P1;HPM_P2
2022/08/16 00:00:28;;;;;;;;;;;21.30;71.90;;;;;;5015271;28;20050;-81
2022/08/16 00:02:54;;;;;;;;;;;21.30;71.90;;;;;;5014383;28;19913;-82
2022/08/16 00:05:21;;;;;;;;;;;21.30;71.80;;;;;;5033548;28;20008;-81
2022/08/16 00:07:46;;;;;;;;;;;21.20;71.70;;;;;;5032336;28;20380;-81
2022/08/16 00:10:13;;;;;;;;;;;21.20;71.10;;;;;;5014689;28;19939;-82
2022/08/16 00:12:41;;;;;;;;;;;21.30;71.30;;;;;;5032386;28;19913;-81
2022/08/16 00:15:10;;;;;;;;;;;21.20;71.10;;;;;;5030066;28;19924;-81
2022/08/16 00:17:35;;;;;;;;;;;21.20;71.00;;;;;;5028519;28;19931;-80
2022/08/16 00:20:01;;;;;;;;;;;21.30;70.90;;;;;;5029999;28;19964;-81
2022/08/16 00:22:26;;;;;;;;;;;21.20;69.90;;;;;;5033104;28;19913;-82
2022/08/16 00:24:52;;;;;;;;;;;21.30;69.80;;;;;;5032775;28;19943;-82
2022/08/16 00:27:18;;;;;;;;;;;21.40;69.60;;;;;;5018490;28;19913;-82
2022/08/16 00:29:43;;;;;;;;;;;21.40;69.70;;;;;;5034023;28;20368;-80
2022/08/16 00:32:09;;;;;;;;;;;21.30;69.60;;;;;;5015882;28;19913;-82
2022/08/16 00:34:35;;;;;;;;;;;21.30;70.00;;;;;;5014295;28;19925;-82
2022/08/16 00:37:01;;;;;;;;;;;21.20;70.40;;;;;;5013208;28;19917;-82
2022/08/16 00:39:27;;;;;;;;;;;21.30;70.20;;;;;;5014754;28;20261;-82
2022/08/16 00:41:52;;;;;;;;;;;21.30;69.50;;;;;;5012930;28;19917;-82
2022/08/16 00:44:19;;;;;;;;;;;21.30;69.50;;;;;;5027847;28;20398;-82
2022/08/16 00:46:45;;;;;;;;;;;21.20;69.60;;;;;;5032065;28;19920;-81
2022/08/16 00:49:12;;;;;;;;;;;21.30;69.00;;;;;;5029176;28;19956;-80
2022/08/16 00:51:37;;;;;;;;;;;21.30;69.30;;;;;;5031073;28;20034;-81
2022/08/16 00:54:03;;;;;;;;;;;21.30;68.90;;;;;;5012937;28;19909;-81
2022/08/16 00:56:30;;;;;;;;;;;21.30;68.70;;;;;;5029548;28;19925;-81
2022/08/16 00:58:56;;;;;;;;;;;21.30;69.10;;;;;;5034046;28;19913;-82
2022/08/16 01:01:21;;;;;;;;;;;21.30;68.70;;;;;;5016252;28;19913;-81
2022/08/16 01:03:49;;;;;;;;;;;21.30;68.80;;;;;;5013563;28;19920;-81
2022/08/16 01:06:15;;;;;;;;;;;21.30;69.20;;;;;;5011306;28;19916;-81
2022/08/16 01:08:43;;;;;;;;;;;21.30;69.30;;;;;;5029714;28;19960;-81
2022/08/16 01:11:09;;;;;;;;;;;21.10;69.70;;;;;;5028205;28;19909;-81
2022/08/16 01:13:36;;;;;;;;;;;21.20;69.70;;;;;;5028574;28;19927;-82
2022/08/16 01:16:04;;;;;;;;;;;21.10;69.80;;;;;;5025878;28;19909;-81
2022/08/16 01:18:45;;;;;;;;;;;21.10;69.70;;;;;;5045962;28;19913;-81
2022/08/16 01:21:18;;;;;;;;;;;21.10;70.20;;;;;;5010552;28;19920;-81
2022/08/16 01:23:47;;;;;;;;;;;21.00;70.80;;;;;;5024716;28;19944;-81
2022/08/16 01:26:13;;;;;;;;;;;21.10;70.10;;;;;;5024485;28;19914;-81
2022/08/16 01:28:39;;;;;;;;;;;21.10;70.10;;;;;;5013714;28;19910;-81
2022/08/16 01:31:07;;;;;;;;;;;21.00;70.20;;;;;;5030672;28;19917;-82
2022/08/16 01:33:32;;;;;;;;;;;21.10;70.80;;;;;;5013548;28;20008;-82
2022/08/16 01:36:02;;;;;;;;;;;21.00;70.60;;;;;;5011519;28;20004;-80
2022/08/16 01:38:39;;;;;;;;;;;21.00;70.40;;;;;;5007457;28;19943;-82
2022/08/16 01:41:13;;;;;;;;;;;21.10;70.30;;;;;;5012041;28;19928;-81
2022/08/16 01:43:40;;;;;;;;;;;21.10;70.00;;;;;;5026753;28;20016;-82
2022/08/16 01:46:08;;;;;;;;;;;21.10;70.10;;;;;;5030011;28;19962;-82
2022/08/16 01:48:33;;;;;;;;;;;21.10;70.30;;;;;;5013887;28;19913;-82
2022/08/16 01:51:00;;;;;;;;;;;21.10;69.90;;;;;;5013578;28;21532;-82
2022/08/16 01:53:27;;;;;;;;;;;21.10;70.20;;;;;;5029614;28;19913;-81
2022/08/16 01:55:53;;;;;;;;;;;21.10;70.40;;;;;;5014148;28;20027;-81
2022/08/16 01:58:19;;;;;;;;;;;21.10;70.30;;;;;;5029272;28;19952;-82
2022/08/16 02:00:45;;;;;;;;;;;21.10;70.30;;;;;;5012898;28;19917;-81
2022/08/16 02:03:11;;;;;;;;;;;21.10;70.20;;;;;;5043300;28;19983;-81
2022/08/16 02:05:38;;;;;;;;;;;21.10;70.20;;;;;;5013713;28;19920;-82
2022/08/16 02:08:03;;;;;;;;;;;21.00;70.50;;;;;;5033732;28;19919;-82
2022/08/16 02:10:29;;;;;;;;;;;21.00;70.40;;;;;;5010965;28;19917;-82
2022/08/16 02:12:55;;;;;;;;;;;21.10;70.20;;;;;;5011456;28;19923;-83
2022/08/16 02:15:22;;;;;;;;;;;21.00;70.40;;;;;;5018299;28;19913;-82
2022/08/16 02:17:48;;;;;;;;;;;21.00;70.60;;;;;;5031126;28;19913;-82
2022/08/16 02:20:14;;;;;;;;;;;21.10;70.60;;;;;;5011320;28;19925;-81
2022/08/16 02:22:39;;;;;;;;;;;21.10;70.40;;;;;;5028531;28;19913;-82
2022/08/16 02:25:08;;;;;;;;;;;21.00;70.60;;;;;;5028900;28;19917;-81
2022/08/16 02:27:33;;;;;;;;;;;21.10;70.40;;;;;;5029314;28;19924;-82
2022/08/16 02:29:59;;;;;;;;;;;21.10;70.30;;;;;;5016190;28;19913;-82
2022/08/16 02:32:24;;;;;;;;;;;21.10;70.40;;;;;;5011516;28;19975;-82
2022/08/16 02:34:50;;;;;;;;;;;21.10;70.30;;;;;;5031880;28;19913;-82
2022/08/16 02:37:15;;;;;;;;;;;21.10;70.20;;;;;;5044898;28;19927;-80
2022/08/16 02:39:41;;;;;;;;;;;21.10;70.20;;;;;;5043164;28;19913;-81
2022/08/16 02:42:06;;;;;;;;;;;21.10;70.90;;;;;;5046850;28;19981;-81
2022/08/16 02:44:31;;;;;;;;;;;21.10;70.60;;;;;;5034103;28;20089;-80
2022/08/16 02:46:57;;;;;;;;;;;21.00;70.70;;;;;;5049595;28;19924;-80
2022/08/16 02:49:22;;;;;;;;;;;21.10;70.90;;;;;;5037467;28;19926;-81
2022/08/16 02:51:48;;;;;;;;;;;21.00;71.10;;;;;;5039014;28;19941;-82
2022/08/16 02:54:14;;;;;;;;;;;20.90;71.10;;;;;;5024502;28;19940;-82
2022/08/16 02:56:40;;;;;;;;;;;20.90;71.10;;;;;;5013777;28;19913;-82
2022/08/16 02:59:05;;;;;;;;;;;20.90;71.20;;;;;;5012624;28;19913;-82
2022/08/16 03:01:31;;;;;;;;;;;21.00;71.10;;;;;;5012236;28;19976;-82
2022/08/16 03:03:58;;;;;;;;;;;20.90;71.20;;;;;;5012432;28;20370;-81
2022/08/16 03:06:24;;;;;;;;;;;20.80;71.20;;;;;;5018421;28;19939;-82
2022/08/16 03:08:50;;;;;;;;;;;20.80;71.40;;;;;;5033497;28;19916;-80
2022/08/16 03:11:17;;;;;;;;;;;20.80;71.50;;;;;;5015696;28;20410;-82
2022/08/16 03:13:43;;;;;;;;;;;20.80;71.70;;;;;;5015370;28;20007;-81
2022/08/16 03:16:09;;;;;;;;;;;20.70;72.10;;;;;;5035165;28;19952;-82
2022/08/16 03:18:34;;;;;;;;;;;20.60;72.30;;;;;;5014696;28;19975;-81
2022/08/16 03:21:00;;;;;;;;;;;20.60;72.50;;;;;;5030638;28;20335;-82
2022/08/16 03:23:26;;;;;;;;;;;20.60;72.40;;;;;;5014650;28;19920;-82
2022/08/16 03:25:51;;;;;;;;;;;20.60;72.50;;;;;;5035331;28;19967;-81
2022/08/16 03:28:17;;;;;;;;;;;20.60;72.20;;;;;;5014497;28;19956;-80
2022/08/16 03:30:43;;;;;;;;;;;20.60;72.50;;;;;;5016053;28;19913;-82
2022/08/16 03:33:08;;;;;;;;;;;20.60;72.40;;;;;;5015138;28;19917;-81
2022/08/16 03:35:35;;;;;;;;;;;20.60;72.10;;;;;;5051313;28;19921;-82
2022/08/16 03:38:02;;;;;;;;;;;20.60;72.40;;;;;;5016999;28;19913;-82
2022/08/16 03:40:28;;;;;;;;;;;20.50;72.30;;;;;;5034148;28;19917;-82
2022/08/16 03:42:53;;;;;;;;;;;20.40;72.50;;;;;;5015719;28;19921;-81
2022/08/16 03:45:19;;;;;;;;;;;20.50;72.30;;;;;;4996716;23;19934;-84
2022/08/16 03:47:46;;;;;;;;;;;20.40;72.40;;;;;;5032979;28;20011;-84
2022/08/16 03:50:13;;;;;;;;;;;20.50;72.60;;;;;;5024369;28;19948;-84
2022/08/16 03:52:39;;;;;;;;;;;20.40;72.60;;;;;;5049502;28;19920;-84
2022/08/16 03:55:05;;;;;;;;;;;20.50;72.20;;;;;;5049873;28;19999;-83
2022/08/16 03:57:30;;;;;;;;;;;20.50;72.40;;;;;;5023404;28;19916;-83
2022/08/16 03:59:56;;;;;;;;;;;20.40;72.40;;;;;;5028132;28;20394;-84
2022/08/16 04:02:21;;;;;;;;;;;20.30;72.40;;;;;;5045509;28;19947;-83
2022/08/16 04:04:47;;;;;;;;;;;20.30;73.10;;;;;;5035668;28;19936;-83
2022/08/16 04:07:14;;;;;;;;;;;20.30;73.10;;;;;;5035701;28;19917;-83
2022/08/16 04:09:39;;;;;;;;;;;20.30;73.20;;;;;;5039938;28;19920;-85
2022/08/16 04:12:06;;;;;;;;;;;20.30;73.20;;;;;;5047588;28;19921;-84
2022/08/16 04:14:31;;;;;;;;;;;20.30;72.90;;;;;;5023233;28;19971;-84
2022/08/16 04:16:57;;;;;;;;;;;20.30;73.00;;;;;;5020673;28;19956;-85
2022/08/16 04:19:24;;;;;;;;;;;20.30;72.70;;;;;;5049583;28;19913;-85
2022/08/16 04:21:50;;;;;;;;;;;20.30;72.90;;;;;;5050288;28;20389;-85
2022/08/16 04:24:15;;;;;;;;;;;20.40;73.10;;;;;;5056561;28;19913;-88
2022/08/16 04:26:41;;;;;;;;;;;20.30;72.80;;;;;;5039452;28;19913;-79
2022/08/16 04:29:06;;;;;;;;;;;20.30;73.00;;;;;;5030362;28;20368;-84
2022/08/16 04:31:32;;;;;;;;;;;20.30;72.70;;;;;;5042071;28;19920;-83
2022/08/16 04:33:58;;;;;;;;;;;20.30;73.00;;;;;;5042425;28;19959;-86
2022/08/16 04:36:24;;;;;;;;;;;20.40;72.40;;;;;;5047145;28;19924;-86
2022/08/16 04:38:50;;;;;;;;;;;20.40;72.50;;;;;;5049404;28;20138;-85
2022/08/16 04:41:16;;;;;;;;;;;20.30;72.40;;;;;;5040479;28;19947;-85
2022/08/16 04:43:42;;;;;;;;;;;20.30;72.50;;;;;;5050385;28;19920;-85
2022/08/16 04:46:08;;;;;;;;;;;20.30;72.90;;;;;;5055352;28;19974;-85
2022/08/16 04:48:33;;;;;;;;;;;20.30;72.80;;;;;;5062403;28;19919;-85
2022/08/16 04:50:59;;;;;;;;;;;20.30;73.10;;;;;;5063719;28;19913;-88
2022/08/16 04:53:24;;;;;;;;;;;20.20;73.40;;;;;;5038092;28;20495;-85
2022/08/16 04:55:50;;;;;;;;;;;20.20;73.70;;;;;;5042637;28;19923;-84
2022/08/16 04:58:15;;;;;;;;;;;20.20;73.50;;;;;;5047232;28;20342;-84
2022/08/16 05:00:41;;;;;;;;;;;20.20;73.60;;;;;;5020619;28;19925;-84
2022/08/16 05:03:08;;;;;;;;;;;20.20;72.90;;;;;;5041115;28;19952;-84
2022/08/16 05:05:34;;;;;;;;;;;20.20;72.90;;;;;;5025722;28;20264;-83
2022/08/16 05:08:00;;;;;;;;;;;20.20;72.70;;;;;;5046470;28;19921;-85
2022/08/16 05:10:26;;;;;;;;;;;20.20;72.50;;;;;;5044782;28;20435;-85
2022/08/16 05:12:52;;;;;;;;;;;20.30;72.40;;;;;;5023866;28;20000;-84
2022/08/16 05:15:17;;;;;;;;;;;20.50;72.30;;;;;;5044388;28;20219;-85
2022/08/16 05:17:43;;;;;;;;;;;20.40;72.00;;;;;;5045852;28;19920;-84
2022/08/16 05:20:09;;;;;;;;;;;20.40;71.80;;;;;;5051139;28;20352;-86
2022/08/16 05:22:35;;;;;;;;;;;20.50;71.90;;;;;;5045277;28;19920;-86
2022/08/16 05:25:05;;;;;;;;;;;20.50;72.20;;;;;;5051934;28;19917;-84
2022/08/16 05:27:30;;;;;;;;;;;20.50;71.60;;;;;;5032546;28;19952;-84
2022/08/16 05:29:56;;;;;;;;;;;20.60;71.40;;;;;;5024372;28;19963;-84
2022/08/16 05:32:21;;;;;;;;;;;20.60;71.50;;;;;;5042441;28;19955;-82
2022/08/16 05:34:47;;;;;;;;;;;20.50;71.60;;;;;;5029316;28;19912;-82
2022/08/16 05:37:12;;;;;;;;;;;20.60;71.70;;;;;;5061549;28;19972;-82
2022/08/16 05:39:38;;;;;;;;;;;20.60;71.70;;;;;;5053709;28;19923;-83
2022/08/16 05:42:03;;;;;;;;;;;20.70;71.60;;;;;;5029537;28;19999;-81
2022/08/16 05:44:29;;;;;;;;;;;20.70;71.40;;;;;;5047297;28;20409;-81
2022/08/16 05:46:57;;;;;;;;;;;20.70;71.10;;;;;;5040903;28;21347;-83
2022/08/16 05:49:24;;;;;;;;;;;20.60;71.40;;;;;;5056528;28;19915;-83
2022/08/16 05:51:49;;;;;;;;;;;20.80;71.40;;;;;;5055945;28;20321;-83
2022/08/16 05:54:18;;;;;;;;;;;20.80;71.20;;;;;;5056322;28;19962;-83
2022/08/16 05:56:47;;;;;;;;;;;21.00;70.30;;;;;;5040520;28;19908;-83
2022/08/16 05:59:14;;;;;;;;;;;21.00;70.60;;;;;;5052820;28;20313;-83
2022/08/16 06:01:40;;;;;;;;;;;21.00;70.60;;;;;;5034140;28;19987;-83
2022/08/16 06:04:06;;;;;;;;;;;21.00;70.80;;;;;;5027060;28;20404;-83
2022/08/16 06:06:31;;;;;;;;;;;21.10;70.30;;;;;;5020647;28;20009;-83
2022/08/16 06:08:58;;;;;;;;;;;21.10;70.30;;;;;;5050392;28;19948;-83
2022/08/16 06:11:23;;;;;;;;;;;21.10;70.40;;;;;;5038665;28;20450;-83
2022/08/16 06:13:49;;;;;;;;;;;21.60;69.30;;;;;;5038908;28;19909;-83
2022/08/16 06:16:14;;;;;;;;;;;22.00;68.20;;;;;;5055756;28;20225;-85
2022/08/16 06:18:43;;;;;;;;;;;22.10;67.80;;;;;;5048990;28;19913;-80
2022/08/16 06:21:09;;;;;;;;;;;22.00;67.60;;;;;;5058214;28;19924;-83
2022/08/16 06:23:35;;;;;;;;;;;21.90;67.50;;;;;;5055328;28;19984;-84
2022/08/16 06:26:00;;;;;;;;;;;21.90;67.70;;;;;;5057604;28;19952;-85
2022/08/16 06:28:26;;;;;;;;;;;21.80;67.80;;;;;;5058157;28;19909;-85
2022/08/16 06:30:51;;;;;;;;;;;21.70;68.30;;;;;;5023655;28;19913;-85
2022/08/16 06:33:16;;;;;;;;;;;21.90;68.20;;;;;;5047576;28;19952;-84
2022/08/16 06:35:42;;;;;;;;;;;21.70;68.20;;;;;;5032886;28;19913;-85
2022/08/16 06:38:08;;;;;;;;;;;21.60;68.40;;;;;;5022150;28;20905;-84
2022/08/16 06:40:33;;;;;;;;;;;21.60;68.90;;;;;;5043997;28;19993;-84
2022/08/16 06:43:00;;;;;;;;;;;21.60;69.00;;;;;;5031762;28;19913;-84
2022/08/16 06:45:25;;;;;;;;;;;21.60;69.20;;;;;;5048121;28;20260;-83
2022/08/16 06:47:51;;;;;;;;;;;21.60;69.00;;;;;;5049016;28;19919;-82
2022/08/16 06:50:17;;;;;;;;;;;21.60;69.00;;;;;;5047180;28;19920;-83
2022/08/16 06:52:44;;;;;;;;;;;21.80;68.90;;;;;;5052071;28;19909;-83
2022/08/16 06:55:10;;;;;;;;;;;21.80;68.90;;;;;;5045702;28;19951;-84
2022/08/16 06:57:36;;;;;;;;;;;21.90;68.50;;;;;;5043940;28;19912;-83
2022/08/16 07:00:10;;;;;;;;;;;21.90;68.50;;;;;;5039085;28;19909;-83
2022/08/16 07:02:36;;;;;;;;;;;22.00;68.60;;;;;;5033800;28;19925;-84
2022/08/16 07:05:02;;;;;;;;;;;22.10;68.20;;;;;;5045062;28;19927;-83
2022/08/16 07:07:27;;;;;;;;;;;22.20;68.30;;;;;;5051519;28;20380;-82
2022/08/16 07:09:53;;;;;;;;;;;22.20;67.90;;;;;;5034422;28;20045;-83
2022/08/16 07:12:19;;;;;;;;;;;22.20;67.60;;;;;;5056621;28;19909;-83
2022/08/16 07:14:47;;;;;;;;;;;22.20;67.70;;;;;;5031272;28;20437;-83
2022/08/16 07:17:12;;;;;;;;;;;22.30;67.30;;;;;;5052444;28;19912;-83
2022/08/16 07:19:39;;;;;;;;;;;22.30;67.50;;;;;;5045131;28;19913;-83
2022/08/16 07:22:04;;;;;;;;;;;22.30;67.50;;;;;;5021877;28;19925;-83
2022/08/16 07:24:30;;;;;;;;;;;22.30;67.80;;;;;;5030947;28;19921;-83
2022/08/16 07:26:56;;;;;;;;;;;22.50;67.50;;;;;;5034424;28;19908;-84
2022/08/16 07:29:21;;;;;;;;;;;22.50;67.20;;;;;;5045633;28;19970;-84
2022/08/16 07:31:47;;;;;;;;;;;22.50;67.00;;;;;;5029247;28;19916;-81
2022/08/16 07:34:12;;;;;;;;;;;22.60;67.00;;;;;;5023324;28;19919;-83
2022/08/16 07:36:38;;;;;;;;;;;22.70;66.90;;;;;;5049513;28;19999;-82
2022/08/16 07:39:04;;;;;;;;;;;22.70;66.50;;;;;;5046415;28;19967;-82
2022/08/16 07:41:29;;;;;;;;;;;22.60;66.70;;;;;;5047209;28;19943;-81
2022/08/16 07:43:55;;;;;;;;;;;22.70;66.70;;;;;;5049616;28;19912;-83
2022/08/16 07:46:20;;;;;;;;;;;22.80;66.60;;;;;;5052632;28;19921;-83
2022/08/16 07:48:46;;;;;;;;;;;22.80;66.60;;;;;;5032016;28;19913;-82
2022/08/16 07:51:11;;;;;;;;;;;23.00;66.30;;;;;;5049185;28;19909;-81
2022/08/16 07:53:37;;;;;;;;;;;23.20;65.60;;;;;;5053553;28;19914;-83
2022/08/16 07:56:03;;;;;;;;;;;23.30;65.50;;;;;;5045408;28;19909;-83
2022/08/16 07:58:29;;;;;;;;;;;23.20;65.30;;;;;;5041158;28;20322;-83
2022/08/16 08:00:54;;;;;;;;;;;23.20;65.30;;;;;;5041437;28;19926;-82
2022/08/16 08:03:21;;;;;;;;;;;23.20;65.20;;;;;;5037874;28;19920;-82
2022/08/16 08:05:46;;;;;;;;;;;23.20;65.50;;;;;;5041756;28;19913;-82
2022/08/16 08:08:12;;;;;;;;;;;23.30;66.30;;;;;;5051561;28;19936;-83
2022/08/16 08:10:37;;;;;;;;;;;23.50;66.20;;;;;;5050757;28;19913;-82
2022/08/16 08:13:03;;;;;;;;;;;23.50;64.80;;;;;;5034646;28;19927;-82
2022/08/16 08:15:29;;;;;;;;;;;23.70;64.40;;;;;;5056033;28;19916;-82
2022/08/16 08:17:55;;;;;;;;;;;23.60;64.00;;;;;;5050189;28;19916;-83
2022/08/16 08:20:21;;;;;;;;;;;23.80;63.90;;;;;;5048001;28;20020;-82
2022/08/16 08:22:47;;;;;;;;;;;23.90;63.80;;;;;;5033775;28;19920;-83
2022/08/16 08:25:14;;;;;;;;;;;23.90;63.50;;;;;;5052236;28;19913;-82
2022/08/16 08:27:41;;;;;;;;;;;23.90;63.40;;;;;;5068798;28;19913;-82
2022/08/16 08:30:06;;;;;;;;;;;23.90;63.70;;;;;;5049381;28;19915;-83
2022/08/16 08:32:32;;;;;;;;;;;23.80;63.70;;;;;;5046966;28;20023;-84
2022/08/16 08:34:58;;;;;;;;;;;23.90;63.80;;;;;;5035937;28;19916;-83
2022/08/16 08:37:26;;;;;;;;;;;24.00;63.70;;;;;;5042782;28;19913;-83
2022/08/16 08:39:52;;;;;;;;;;;24.10;62.80;;;;;;5063403;28;19968;-83
2022/08/16 08:42:17;;;;;;;;;;;24.10;63.40;;;;;;5074938;28;19921;-84
2022/08/16 08:44:43;;;;;;;;;;;24.20;63.60;;;;;;5051664;28;19917;-84
2022/08/16 08:47:08;;;;;;;;;;;24.20;62.50;;;;;;5031147;28;19917;-83
2022/08/16 08:49:34;;;;;;;;;;;24.30;63.40;;;;;;5056563;28;19954;-84
2022/08/16 08:52:00;;;;;;;;;;;24.50;61.90;;;;;;5051713;28;19908;-84
2022/08/16 08:54:26;;;;;;;;;;;24.50;61.70;;;;;;5033189;28;19912;-84
2022/08/16 08:56:52;;;;;;;;;;;24.50;61.50;;;;;;5042204;28;19913;-84
2022/08/16 08:59:17;;;;;;;;;;;24.60;61.20;;;;;;5062867;28;20019;-83
2022/08/16 09:01:43;;;;;;;;;;;24.60;61.70;;;;;;5034111;28;19917;-84
2022/08/16 09:04:09;;;;;;;;;;;24.70;61.80;;;;;;5051714;28;19913;-84
2022/08/16 09:06:34;;;;;;;;;;;25.00;61.50;;;;;;5065526;28;19921;-84
2022/08/16 09:09:00;;;;;;;;;;;25.10;61.30;;;;;;5052954;28;19925;-83
2022/08/16 09:11:26;;;;;;;;;;;25.10;60.40;;;;;;5035984;28;19912;-83
2022/08/16 09:13:52;;;;;;;;;;;25.10;59.80;;;;;;5050694;28;20003;-84
2022/08/16 09:16:17;;;;;;;;;;;25.10;59.60;;;;;;5051364;28;19913;-83
2022/08/16 09:18:43;;;;;;;;;;;25.20;59.80;;;;;;5054291;28;19908;-83
2022/08/16 09:21:09;;;;;;;;;;;25.20;59.80;;;;;;5032275;28;20303;-84
2022/08/16 09:23:35;;;;;;;;;;;25.20;59.70;;;;;;5061336;28;19929;-84
2022/08/16 09:26:01;;;;;;;;;;;25.20;60.10;;;;;;5053089;28;19940;-84
2022/08/16 09:28:27;;;;;;;;;;;25.40;58.50;;;;;;5036371;28;19971;-83
2022/08/16 09:30:53;;;;;;;;;;;25.50;57.60;;;;;;5053141;28;19913;-83
2022/08/16 09:33:19;;;;;;;;;;;25.50;58.30;;;;;;5046199;28;19996;-83
2022/08/16 09:35:45;;;;;;;;;;;25.60;57.70;;;;;;5034644;28;20342;-83
2022/08/16 09:38:12;;;;;;;;;;;25.60;57.60;;;;;;5049437;28;19913;-83
2022/08/16 09:40:41;;;;;;;;;;;25.60;57.40;;;;;;5041139;28;20036;-81
2022/08/16 09:43:10;;;;;;;;;;;25.70;56.10;;;;;;5039688;28;20399;-81
2022/08/16 09:45:40;;;;;;;;;;;25.70;55.30;;;;;;5045363;22;20004;-82
2022/08/16 09:48:06;;;;;;;;;;;25.70;55.60;;;;;;5050159;28;19933;-82
2022/08/16 09:50:33;;;;;;;;;;;25.70;55.80;;;;;;5046411;28;19909;-82
2022/08/16 09:52:59;;;;;;;;;;;25.80;55.00;;;;;;5053751;28;20374;-81
2022/08/16 09:55:24;;;;;;;;;;;25.80;55.00;;;;;;5051552;28;19916;-83
2022/08/16 09:57:50;;;;;;;;;;;25.70;54.60;;;;;;5017482;28;19924;-82
2022/08/16 10:00:16;;;;;;;;;;;25.80;55.30;;;;;;5046360;28;19924;-82
2022/08/16 10:02:42;;;;;;;;;;;25.90;54.90;;;;;;5041623;28;19920;-83
2022/08/16 10:05:08;;;;;;;;;;;26.00;55.40;;;;;;5034366;28;20069;-83
2022/08/16 10:07:33;;;;;;;;;;;26.00;55.00;;;;;;5033953;28;19916;-83
2022/08/16 10:09:59;;;;;;;;;;;26.00;54.60;;;;;;5033591;28;19913;-83
2022/08/16 10:15:14;;;;;;;;;;;26.30;53.80;;;;;;5030781;28;19924;-86
2022/08/16 10:17:41;;;;;;;;;;;26.10;53.80;;;;;;5014079;28;19913;-85
2022/08/16 10:20:10;;;;;;;;;;;26.20;54.10;;;;;;5033539;28;19953;-84
2022/08/16 10:22:35;;;;;;;;;;;26.30;53.90;;;;;;5030729;28;19917;-83
2022/08/16 10:25:01;;;;;;;;;;;26.50;51.60;;;;;;5028025;28;20400;-84
2022/08/16 10:27:27;;;;;;;;;;;26.60;52.40;;;;;;5020513;28;19949;-82
2022/08/16 10:29:52;;;;;;;;;;;26.70;51.10;;;;;;5023331;28;19914;-81
2022/08/16 10:32:19;;;;;;;;;;;26.70;51.30;;;;;;5026718;28;20008;-82
2022/08/16 10:34:45;;;;;;;;;;;26.70;50.40;;;;;;5032049;28;19944;-82
2022/08/16 10:37:10;;;;;;;;;;;26.80;50.00;;;;;;5031108;28;19913;-81
2022/08/16 10:39:36;;;;;;;;;;;26.90;50.60;;;;;;5023289;28;20091;-82
2022/08/16 10:42:01;;;;;;;;;;;26.90;50.40;;;;;;5030928;28;19917;-82
2022/08/16 10:44:27;;;;;;;;;;;26.90;51.00;;;;;;5029741;28;19913;-83
2022/08/16 10:46:52;;;;;;;;;;;26.90;50.00;;;;;;5029065;28;20015;-82
2022/08/16 10:49:19;;;;;;;;;;;26.90;49.80;;;;;;5031881;28;19909;-82
2022/08/16 10:51:44;;;;;;;;;;;26.80;49.80;;;;;;5032195;28;19924;-81
2022/08/16 10:54:10;;;;;;;;;;;26.70;49.80;;;;;;5021956;28;19913;-82
2022/08/16 10:56:35;;;;;;;;;;;26.60;50.80;;;;;;5012097;28;19979;-87
2022/08/16 10:59:01;;;;;;;;;;;26.70;50.80;;;;;;5008146;28;20419;-86
2022/08/16 11:01:26;;;;;;;;;;;26.80;50.30;;;;;;5022829;28;19925;-84
2022/08/16 11:03:53;;;;;;;;;;;26.90;50.10;;;;;;5009191;28;19913;-83
2022/08/16 11:06:18;;;;;;;;;;;27.00;50.20;;;;;;5014591;28;19920;-83
2022/08/16 11:08:44;;;;;;;;;;;27.00;49.80;;;;;;5029499;28;19928;-83
2022/08/16 11:11:10;;;;;;;;;;;27.10;49.20;;;;;;5012681;28;20299;-84
2022/08/16 11:13:36;;;;;;;;;;;27.10;50.00;;;;;;5010239;28;19917;-84
2022/08/16 11:16:02;;;;;;;;;;;27.20;49.10;;;;;;5003522;28;19920;-84
2022/08/16 11:18:28;;;;;;;;;;;27.40;48.80;;;;;;5029012;28;19952;-82
2022/08/16 11:20:55;;;;;;;;;;;27.50;48.40;;;;;;5030253;28;19960;-83
2022/08/16 11:23:20;;;;;;;;;;;27.60;48.30;;;;;;5028294;28;19913;-82
2022/08/16 11:25:47;;;;;;;;;;;27.60;48.20;;;;;;5026666;28;19949;-82
2022/08/16 11:28:13;;;;;;;;;;;27.60;48.70;;;;;;5014941;28;19920;-83
2022/08/16 11:30:40;;;;;;;;;;;27.60;47.80;;;;;;5022526;28;19909;-83
2022/08/16 11:33:06;;;;;;;;;;;27.80;47.80;;;;;;5016284;28;19936;-82
2022/08/16 11:35:31;;;;;;;;;;;27.80;47.20;;;;;;5014545;28;20267;-83
2022/08/16 11:38:02;;;;;;;;;;;28.00;46.70;;;;;;4998636;28;20001;-83
2022/08/16 11:40:33;;;;;;;;;;;28.00;46.40;;;;;;5027531;28;19944;-82
2022/08/16 11:43:00;;;;;;;;;;;27.90;46.10;;;;;;5035277;28;20031;-83
2022/08/16 11:45:25;;;;;;;;;;;27.70;46.60;;;;;;5028116;28;20470;-84
2022/08/16 11:47:51;;;;;;;;;;;27.60;46.40;;;;;;5030979;28;19947;-84
2022/08/16 11:50:16;;;;;;;;;;;27.60;46.60;;;;;;5023067;28;20335;-84
2022/08/16 11:52:42;;;;;;;;;;;27.80;44.90;;;;;;5024457;28;19917;-84
2022/08/16 11:55:09;;;;;;;;;;;27.80;44.50;;;;;;5038071;28;19917;-87
2022/08/16 11:57:35;;;;;;;;;;;27.90;45.40;;;;;;5034533;28;19921;-86
2022/08/16 12:00:01;;;;;;;;;;;28.00;45.70;;;;;;5020283;28;19920;-87
2022/08/16 12:02:26;;;;;;;;;;;28.10;45.50;;;;;;5029828;28;19935;-87
2022/08/16 12:04:52;;;;;;;;;;;28.10;44.00;;;;;;5045584;28;19933;-86
2022/08/16 12:07:18;;;;;;;;;;;28.00;44.10;;;;;;5033620;28;20391;-88
2022/08/16 12:09:44;;;;;;;;;;;28.20;43.80;;;;;;5026163;28;19913;-87
2022/08/16 12:12:09;;;;;;;;;;;28.20;43.50;;;;;;5017730;28;19910;-87
2022/08/16 12:14:35;;;;;;;;;;;28.10;43.40;;;;;;5014435;28;19936;-88
2022/08/16 12:17:01;;;;;;;;;;;27.90;44.40;;;;;;5013953;28;20000;-87
2022/08/16 12:19:28;;;;;;;;;;;27.80;45.50;;;;;;5015436;28;20421;-86
2022/08/16 12:21:53;;;;;;;;;;;28.00;44.20;;;;;;5021058;28;20378;-88
2022/08/16 12:24:19;;;;;;;;;;;28.00;43.80;;;;;;5020120;28;20016;-89
2022/08/16 12:26:45;;;;;;;;;;;28.30;42.20;;;;;;5026849;28;19936;-86
2022/08/16 12:29:10;;;;;;;;;;;28.40;42.30;;;;;;5029187;28;19924;-88
2022/08/16 12:31:36;;;;;;;;;;;28.40;42.00;;;;;;5015334;28;21728;-88
2022/08/16 12:34:01;;;;;;;;;;;28.50;42.80;;;;;;5015598;28;19959;-86
2022/08/16 12:36:27;;;;;;;;;;;28.50;42.90;;;;;;5035647;28;19920;-86
2022/08/16 12:38:53;;;;;;;;;;;28.50;42.50;;;;;;5032629;28;20339;-86
2022/08/16 12:41:19;;;;;;;;;;;28.70;42.70;;;;;;5023163;28;20000;-86
2022/08/16 12:43:45;;;;;;;;;;;28.80;41.80;;;;;;5033782;28;20309;-87
2022/08/16 12:46:11;;;;;;;;;;;28.90;41.30;;;;;;5015504;28;20376;-86
2022/08/16 12:48:57;;;;;;;;;;;29.00;41.10;;;;;;5030769;28;20299;-86
2022/08/16 12:51:33;;;;;;;;;;;29.20;41.40;;;;;;5013299;28;20340;-87
2022/08/16 12:53:59;;;;;;;;;;;29.30;41.30;;;;;;5018194;28;19913;-85
2022/08/16 12:56:27;;;;;;;;;;;29.30;40.80;;;;;;5026732;28;20872;-87
2022/08/16 12:58:54;;;;;;;;;;;29.40;40.00;;;;;;5025567;28;20410;-85
2022/08/16 13:01:20;;;;;;;;;;;29.30;40.40;;;;;;5027430;28;19916;-86
2022/08/16 13:04:05;;;;;;;;;;;29.10;40.80;;;;;;5016329;28;19917;-87
2022/08/16 13:06:31;;;;;;;;;;;29.00;41.30;;;;;;5029430;28;20003;-85
2022/08/16 13:08:57;;;;;;;;;;;29.00;41.10;;;;;;5030347;28;19948;-81
2022/08/16 13:11:28;;;;;;;;;;;28.90;41.10;;;;;;5029968;28;19920;-84
2022/08/16 13:13:53;;;;;;;;;;;28.90;40.90;;;;;;5012620;28;19913;-82
2022/08/16 13:16:19;;;;;;;;;;;28.90;41.00;;;;;;5009342;28;19920;-82
2022/08/16 13:18:44;;;;;;;;;;;28.80;40.80;;;;;;5013075;28;19917;-82
2022/08/16 13:21:10;;;;;;;;;;;28.80;40.80;;;;;;5013080;28;19929;-83
2022/08/16 13:23:36;;;;;;;;;;;29.00;41.00;;;;;;5025463;28;19918;-83
2022/08/16 13:26:02;;;;;;;;;;;29.10;40.50;;;;;;5025538;28;20445;-84
2022/08/16 13:28:27;;;;;;;;;;;29.10;39.80;;;;;;5021565;28;20398;-85
2022/08/16 13:30:54;;;;;;;;;;;29.20;39.90;;;;;;5025547;28;19914;-84
2022/08/16 13:33:22;;;;;;;;;;;29.30;40.00;;;;;;5024936;28;19913;-83
2022/08/16 13:35:49;;;;;;;;;;;29.30;40.20;;;;;;5018096;28;20003;-88
2022/08/16 13:38:41;;;;;;;;;;;29.50;40.40;;;;;;5022179;28;19920;-87
2022/08/16 13:41:18;;;;;;;;;;;29.50;40.50;;;;;;5009963;28;19971;-87
2022/08/16 13:43:55;;;;;;;;;;;29.60;40.60;;;;;;5036762;28;19919;-88
2022/08/16 13:46:20;;;;;;;;;;;29.80;39.80;;;;;;5049421;28;19932;-88
2022/08/16 13:48:52;;;;;;;;;;;29.90;40.10;;;;;;5037200;28;19924;-90
2022/08/16 13:51:31;;;;;;;;;;;29.90;40.50;;;;;;5022024;28;19914;-88
2022/08/16 13:54:02;;;;;;;;;;;29.90;39.80;;;;;;5011272;28;20416;-88
2022/08/16 13:56:29;;;;;;;;;;;30.00;40.90;;;;;;5027375;28;19914;-88
2022/08/16 13:58:55;;;;;;;;;;;30.00;39.50;;;;;;5030437;28;19919;-89
2022/08/16 14:01:40;;;;;;;;;;;30.00;39.90;;;;;;5016207;28;20016;-89
2022/08/16 14:04:05;;;;;;;;;;;30.00;40.10;;;;;;5011554;28;19916;-88
2022/08/16 14:06:31;;;;;;;;;;;29.70;39.90;;;;;;5025125;28;19917;-82
2022/08/16 14:08:56;;;;;;;;;;;29.70;40.10;;;;;;5024276;28;19913;-85
2022/08/16 14:11:22;;;;;;;;;;;29.70;39.60;;;;;;5023375;28;20344;-87
2022/08/16 14:13:56;;;;;;;;;;;29.60;39.50;;;;;;5020924;28;19920;-89